MMMA/MAM METAR and TAF weather

Enter ICAO airport designator
Station Type Date Time Source
MMMA METAR 2022/12/05 14:23 UTC NOAA

MMMA 051423Z 15004KT 4SM FEW003 FEW200 21/21 A3000 RMK 8/601 BR VRB COND


Station Type Date Time Source
MMMA Decoded METAR 2022/12/05 14:23 UTC NOAA

Matamoros International , Mexico (MMMA) 25-46N 097-32W
Dec 05, 2022 - 09:23 AM EST / 2022.12.05 1423 UTC
Wind: from the SSE (150 degrees) at 5 MPH (4 KT):0
Visibility: 4 mile(s):0
Sky conditions: mostly clear
Temperature: 69 F (21 C)
Dew Point: 69 F (21 C)
Relative Humidity: 100%
Pressure (altimeter): 30 in. Hg (1015 hPa)
ob: MMMA 051423Z 15004KT 4SM FEW003 FEW200 21/21 A3000 RMK 8/601 BR VRB COND
cycle: 14

Station Type Date Time Source
MMMA TAF 2022/12/05 14:46 UTC NOAA

TAF
AMD MMMA 051339Z 0514/0606 18004KT 1/16SM FG VV000
FM051500 15010KT 1SM BR OVC005
FM051600 16012KT 2SM BR OVC010
FM051800 17015KT 4SM HZ BKN010
FM060300 16010KT 3SM BR HZ OVC008

Example: see airport list